Central Valley, NY (10917)

12:38 AM EDT on June 03, 2015 (GMT -0400)
Woodbury | | Change Station
CLOSE
Current Station
Personal Weather Station
Location: Woodbury, NY
Elevation: 827 ft
Nearby Weather Stations

Elev 827 ft 41.36 °N, 74.14 °W | Updated 9 minutes ago

Partly Cloudy
Partly Cloudy
50.4 °F
Feels Like 50.4 °F
N
0.0
Wind Variable Wind from South

Today
High -- | Low -- °F
--% Chance of Precip.
Yesterday
High -- | Low -- °F
Precip. -- in
5:24 AM 8:24 PM
Full, 100% visible
Pressure 30.20 in
Visibility 7.0 miles
Clouds Mostly Cloudy 10000 ft
Dew Point 50 °F
Humidity 98%
Rainfall 0.00 in
Snow Depth Not available.
UV 0 out of 12
Pollen .90 out of 12
Air Quality Not available.
Flu Activity Sporadic
METAR KSWF 030345Z 00000KT 7SM BKN100 11/11 A3020

More Conditions Fewer Conditions

Pressure 30.20 in
Visibility 7.0 miles
Clouds Mostly Cloudy 10000 ft
Dew Point 50 °F
Humidity 98%
Rainfall 0.00 in
Snow Depth Not available.
UV 0 out of 12
Pollen .90 out of 12
Air Quality Not available.
Flu Activity Sporadic
METAR KSWF 030345Z 00000KT 7SM BKN100 11/11 A3020

More Conditions Fewer Conditions

10-Day Weather Forecast

×

Almanac

Astronomy

Jun. 03, 2015 Rise Set
Actual Time
Civil Twilight
Nautical Twilight
Astronomical Twilight
Moon
Length of Visible Light
Length of Day
Tomorrow will be .
, % of the Moon is Illuminated

Today's Extremes

State Highs State Lows

Community

WunderPhotos

Upload Photos

1,826,164 photos uploaded!

WunderBlogs® & News

Nearby

Air Quality

  Air Quality AQ Index Pollutant
Not available.

Snow Depth

Station Depth Elevation

Earthquake Activity

City Distance Mag. Time & Date
Minimum magnitude displayed is 2.5.

Coastal Water Temperatures

Place Temperature

Stations

Nearby Weather Stations

Station Location Temp. Windchill Dew Point Humidity Wind Precip. Elev Updated Type